Time;durP1;ratioP1;P1;durP2;ratioP2;P2;SDS_P1;SDS_P2;PMS_P1;PMS_P2;Temp;Humidity;BMP_temperature;BMP_pressure;BME280_temperature;BME280_humidity;BME280_pressure;Samples;Min_cycle;Max_cycle;Signal;HPM_P1;HPM_P2
2023/10/20 00:02:11;;;;;;;11.48;9.35;;;;;;;;;;5263972;28;20112;-73
2023/10/20 00:04:44;;;;;;;9.70;8.63;;;;;;;;;;5263105;28;20054;-72
2023/10/20 00:07:15;;;;;;;10.10;9.25;;;;;;;;;;5263827;28;20286;-73
2023/10/20 00:09:46;;;;;;;10.53;9.63;;;;;;;;;;5262878;28;20017;-73
2023/10/20 00:12:17;;;;;;;10.23;9.32;;;;;;;;;;5264038;28;20298;-73
2023/10/20 00:14:49;;;;;;;10.35;9.45;;;;;;;;;;5263244;28;20017;-73
2023/10/20 00:17:20;;;;;;;10.80;9.80;;;;;;;;;;5263263;28;20379;-73
2023/10/20 00:19:54;;;;;;;10.43;9.43;;;;;;;;;;5263173;28;20272;-73
2023/10/20 00:22:26;;;;;;;10.32;9.43;;;;;;;;;;5263452;28;20021;-73
2023/10/20 00:24:58;;;;;;;11.32;9.77;;;;;;;;;;5262686;28;20025;-73
2023/10/20 00:27:29;;;;;;;11.00;10.00;;;;;;;;;;5263276;28;20025;-73
2023/10/20 00:30:00;;;;;;;10.77;9.87;;;;;;;;;;5263271;28;20476;-73
2023/10/20 00:32:33;;;;;;;12.80;10.33;;;;;;;;;;5262282;28;20299;-74
2023/10/20 00:35:05;;;;;;;11.88;10.73;;;;;;;;;;5263063;28;20278;-72
2023/10/20 00:37:37;;;;;;;12.98;11.77;;;;;;;;;;5263264;28;20020;-73
2023/10/20 00:40:09;;;;;;;11.63;10.52;;;;;;;;;;5262237;28;20411;-73
2023/10/20 00:42:40;;;;;;;12.55;11.40;;;;;;;;;;5263069;28;20427;-73
2023/10/20 00:45:11;;;;;;;11.50;10.50;;;;;;;;;;5262351;28;20052;-73
2023/10/20 00:47:44;;;;;;;12.30;11.05;;;;;;;;;;5262723;28;20053;-73
2023/10/20 00:50:16;;;;;;;11.82;10.73;;;;;;;;;;5263343;28;20456;-73
2023/10/20 00:52:48;;;;;;;11.93;10.73;;;;;;;;;;5261705;28;20035;-72
2023/10/20 00:55:20;;;;;;;13.02;11.70;;;;;;;;;;5263101;28;20021;-73
2023/10/20 00:57:53;;;;;;;11.70;10.50;;;;;;;;;;5262543;28;20387;-73
2023/10/20 01:00:25;;;;;;;11.27;10.18;;;;;;;;;;5261923;28;20104;-73
2023/10/20 01:02:57;;;;;;;13.80;12.50;;;;;;;;;;5262663;28;20103;-72
2023/10/20 01:05:31;;;;;;;13.25;11.93;;;;;;;;;;5262486;28;20024;-72
2023/10/20 01:08:03;;;;;;;12.85;11.65;;;;;;;;;;5261746;28;20021;-72
2023/10/20 01:10:34;;;;;;;12.85;11.55;;;;;;;;;;5262617;28;20055;-71
2023/10/20 01:13:06;;;;;;;14.43;12.93;;;;;;;;;;5261581;28;20032;-71
2023/10/20 01:15:37;;;;;;;14.38;12.43;;;;;;;;;;5262432;28;20406;-72
2023/10/20 01:18:10;;;;;;;14.82;12.90;;;;;;;;;;5262236;28;20025;-72
2023/10/20 01:20:41;;;;;;;14.20;12.80;;;;;;;;;;5261692;28;20046;-71
2023/10/20 01:23:13;;;;;;;14.00;12.50;;;;;;;;;;5262312;28;20021;-71
2023/10/20 01:25:44;;;;;;;15.05;13.05;;;;;;;;;;5262107;28;20029;-71
2023/10/20 01:28:16;;;;;;;14.25;12.85;;;;;;;;;;5261584;28;20164;-72
2023/10/20 01:30:48;;;;;;;13.63;12.23;;;;;;;;;;5261645;28;20342;-71
2023/10/20 01:33:19;;;;;;;15.07;13.32;;;;;;;;;;5262178;28;20117;-71
2023/10/20 01:35:50;;;;;;;14.25;12.75;;;;;;;;;;5260844;28;20345;-71
2023/10/20 01:38:21;;;;;;;14.90;13.07;;;;;;;;;;5262147;28;20016;-72
2023/10/20 01:40:52;;;;;;;15.40;13.70;;;;;;;;;;5261621;28;20452;-72
2023/10/20 01:43:24;;;;;;;14.93;13.43;;;;;;;;;;5261045;28;20621;-71
2023/10/20 01:45:55;;;;;;;14.45;13.15;;;;;;;;;;5261589;28;20275;-71
2023/10/20 01:48:26;;;;;;;13.98;12.70;;;;;;;;;;5260228;28;20052;-71
2023/10/20 01:50:59;;;;;;;14.90;13.48;;;;;;;;;;5261595;28;20347;-71
2023/10/20 01:53:31;;;;;;;14.75;13.35;;;;;;;;;;5261167;28;20255;-71
2023/10/20 01:56:02;;;;;;;16.75;14.10;;;;;;;;;;5259957;28;20020;-70
2023/10/20 01:58:33;;;;;;;15.80;14.20;;;;;;;;;;5261482;28;20029;-68
2023/10/20 02:01:07;;;;;;;16.13;14.35;;;;;;;;;;5261386;28;20055;-71
2023/10/20 02:03:39;;;;;;;15.75;14.18;;;;;;;;;;5260895;28;20024;-71
2023/10/20 02:06:10;;;;;;;16.55;14.85;;;;;;;;;;5261303;28;20017;-71
2023/10/20 02:08:41;;;;;;;14.88;13.38;;;;;;;;;;5261633;28;20017;-71
2023/10/20 02:11:12;;;;;;;15.60;13.87;;;;;;;;;;5260519;28;20029;-71
2023/10/20 02:13:43;;;;;;;16.27;14.60;;;;;;;;;;5261047;28;20753;-71
2023/10/20 02:16:15;;;;;;;15.73;14.13;;;;;;;;;;5261169;28;20658;-71
2023/10/20 02:18:46;;;;;;;16.25;14.55;;;;;;;;;;5260170;28;20291;-71
2023/10/20 02:21:17;;;;;;;16.90;15.20;;;;;;;;;;5261687;28;20024;-71
2023/10/20 02:23:48;;;;;;;17.73;16.13;;;;;;;;;;5259796;28;20358;-71
2023/10/20 02:26:20;;;;;;;16.83;15.13;;;;;;;;;;5261238;28;20255;-71
2023/10/20 02:28:52;;;;;;;16.65;14.95;;;;;;;;;;5260605;28;20351;-71
2023/10/20 02:31:23;;;;;;;16.38;14.88;;;;;;;;;;5260706;28;20039;-71
2023/10/20 02:33:54;;;;;;;18.30;16.23;;;;;;;;;;5260960;28;20021;-72
2023/10/20 02:36:25;;;;;;;18.43;15.13;;;;;;;;;;5260877;28;20047;-71
2023/10/20 02:38:56;;;;;;;17.75;16.05;;;;;;;;;;5260130;28;20828;-72
2023/10/20 02:41:28;;;;;;;16.45;14.82;;;;;;;;;;5260851;28;20734;-72
2023/10/20 02:44:00;;;;;;;17.38;15.48;;;;;;;;;;5261122;28;20750;-72
2023/10/20 02:46:31;;;;;;;16.17;14.68;;;;;;;;;;5260097;28;20083;-72
2023/10/20 02:49:04;;;;;;;17.25;14.90;;;;;;;;;;5260864;28;20051;-72
2023/10/20 02:51:35;;;;;;;16.77;15.18;;;;;;;;;;5260067;28;20083;-72
2023/10/20 02:54:09;;;;;;;17.27;15.50;;;;;;;;;;5260761;28;20017;-72
2023/10/20 02:56:40;;;;;;;16.92;14.98;;;;;;;;;;5260966;28;20343;-71
2023/10/20 02:59:12;;;;;;;17.60;16.00;;;;;;;;;;5261562;28;20442;-71
2023/10/20 03:01:43;;;;;;;15.23;13.82;;;;;;;;;;5265042;28;20036;-71
2023/10/20 03:04:14;;;;;;;16.63;14.80;;;;;;;;;;5264865;28;20024;-71
2023/10/20 03:06:46;;;;;;;16.23;13.73;;;;;;;;;;5263792;28;20021;-71
2023/10/20 03:09:18;;;;;;;15.02;13.52;;;;;;;;;;5265385;28;20264;-72
2023/10/20 03:11:49;;;;;;;15.32;13.82;;;;;;;;;;5264630;28;20434;-72
2023/10/20 03:14:21;;;;;;;14.67;13.17;;;;;;;;;;5264514;28;20078;-72
2023/10/20 03:16:52;;;;;;;15.18;13.70;;;;;;;;;;5264365;28;20290;-71
2023/10/20 03:19:23;;;;;;;15.20;13.27;;;;;;;;;;5264953;28;20068;-72
2023/10/20 03:21:55;;;;;;;15.88;13.95;;;;;;;;;;5263942;28;20035;-72
2023/10/20 03:24:26;;;;;;;15.77;14.30;;;;;;;;;;5264869;28;20021;-72
2023/10/20 03:26:57;;;;;;;16.63;15.03;;;;;;;;;;5263850;28;20414;-72
2023/10/20 03:29:28;;;;;;;15.70;14.20;;;;;;;;;;5264441;28;20287;-72
2023/10/20 03:31:59;;;;;;;15.32;13.98;;;;;;;;;;5264105;28;20460;-72
2023/10/20 03:34:32;;;;;;;16.58;14.98;;;;;;;;;;5263648;28;20734;-72
2023/10/20 03:37:03;;;;;;;15.90;14.35;;;;;;;;;;5264267;28;20037;-72
2023/10/20 03:39:34;;;;;;;15.68;14.27;;;;;;;;;;5264395;28;20074;-71
2023/10/20 03:42:07;;;;;;;17.77;16.08;;;;;;;;;;5263332;28;20032;-71
2023/10/20 03:44:38;;;;;;;16.08;14.50;;;;;;;;;;5264344;28;20009;-71
2023/10/20 03:47:09;;;;;;;17.20;15.17;;;;;;;;;;5264055;28;20056;-71
2023/10/20 03:49:41;;;;;;;16.08;14.68;;;;;;;;;;5263726;28;20260;-71
2023/10/20 03:52:13;;;;;;;16.05;14.65;;;;;;;;;;5263957;28;20033;-71
2023/10/20 03:54:45;;;;;;;17.45;15.75;;;;;;;;;;5264106;28;20017;-71
2023/10/20 03:57:17;;;;;;;17.95;16.00;;;;;;;;;;5263654;28;20040;-71
2023/10/20 03:59:48;;;;;;;18.15;16.25;;;;;;;;;;5263496;28;20460;-71
2023/10/20 04:02:19;;;;;;;16.50;14.85;;;;;;;;;;5263331;28;20474;-71
2023/10/20 04:04:50;;;;;;;16.37;14.67;;;;;;;;;;5263305;28;20040;-71
2023/10/20 04:07:22;;;;;;;16.90;15.20;;;;;;;;;;5264154;28;20271;-71
2023/10/20 04:09:55;;;;;;;18.15;16.25;;;;;;;;;;5262421;28;20773;-71
2023/10/20 04:12:27;;;;;;;18.02;15.30;;;;;;;;;;5263694;28;20033;-71
2023/10/20 04:14:58;;;;;;;17.85;16.00;;;;;;;;;;5263536;28;20013;-72
2023/10/20 04:17:29;;;;;;;16.83;14.83;;;;;;;;;;5262765;28;20379;-72
2023/10/20 04:20:02;;;;;;;17.33;15.73;;;;;;;;;;5263689;28;20421;-72
2023/10/20 04:22:33;;;;;;;18.58;16.15;;;;;;;;;;5263607;28;20290;-72
2023/10/20 04:25:05;;;;;;;17.20;15.43;;;;;;;;;;5262723;28;20017;-72
2023/10/20 04:42:45;;;;;;;15.95;14.20;;;;;;;;;;5262926;28;20014;-73
2023/10/20 04:47:51;;;;;;;19.23;17.17;;;;;;;;;;5262778;28;20162;-72
2023/10/20 04:58:58;;;;;;;18.15;16.35;;;;;;;;;;5261755;28;20406;-72
2023/10/20 05:01:47;;;;;;;18.23;16.55;;;;;;;;;;5263006;28;20367;-72
2023/10/20 05:07:05;;;;;;;18.27;16.58;;;;;;;;;;5261245;28;20021;-74
2023/10/20 05:09:43;;;;;;;19.25;17.35;;;;;;;;;;5262379;28;20291;-73
2023/10/20 05:12:14;;;;;;;18.83;16.80;;;;;;;;;;5261899;28;20434;-73
2023/10/20 05:14:47;;;;;;;18.52;16.83;;;;;;;;;;5262192;28;20021;-72
2023/10/20 05:17:21;;;;;;;19.83;17.92;;;;;;;;;;5262552;28;20379;-73
2023/10/20 05:19:53;;;;;;;19.00;17.08;;;;;;;;;;5261120;28;20020;-72
2023/10/20 05:22:24;;;;;;;20.25;18.15;;;;;;;;;;5261272;28;20025;-72
2023/10/20 05:24:57;;;;;;;20.13;18.10;;;;;;;;;;5262385;28;20049;-72
2023/10/20 05:27:28;;;;;;;21.30;19.15;;;;;;;;;;5261597;28;20083;-70
2023/10/20 05:30:00;;;;;;;21.50;19.30;;;;;;;;;;5262033;28;20079;-72
2023/10/20 05:32:31;;;;;;;23.92;21.17;;;;;;;;;;5261946;28;20033;-73
2023/10/20 05:35:03;;;;;;;22.52;20.33;;;;;;;;;;5261304;28;20021;-72
2023/10/20 05:37:35;;;;;;;21.10;19.17;;;;;;;;;;5261965;28;20021;-72
2023/10/20 05:40:06;;;;;;;23.90;21.65;;;;;;;;;;5261880;28;20096;-73
2023/10/20 05:42:37;;;;;;;22.50;20.25;;;;;;;;;;5260835;28;20104;-74
2023/10/20 05:45:20;;;;;;;23.25;20.92;;;;;;;;;;5261970;28;20088;-73
2023/10/20 05:47:51;;;;;;;23.63;21.45;;;;;;;;;;5260497;28;20049;-73
2023/10/20 05:50:23;;;;;;;25.10;22.70;;;;;;;;;;5261892;28;20024;-72
2023/10/20 05:52:54;;;;;;;26.10;23.38;;;;;;;;;;5268484;28;20414;-73
2023/10/20 05:55:25;;;;;;;25.45;22.83;;;;;;;;;;5259437;28;20028;-73
2023/10/20 05:57:57;;;;;;;24.33;21.85;;;;;;;;;;5278584;28;20032;-72
2023/10/20 06:00:28;;;;;;;26.17;23.73;;;;;;;;;;5271692;28;20297;-74
2023/10/20 06:02:59;;;;;;;25.00;22.67;;;;;;;;;;5257604;28;20067;-74
2023/10/20 06:05:30;;;;;;;28.60;25.80;;;;;;;;;;5273616;28;20398;-74
2023/10/20 06:08:02;;;;;;;25.63;23.02;;;;;;;;;;5280711;28;20608;-74
2023/10/20 06:10:33;;;;;;;24.23;21.95;;;;;;;;;;5278969;28;20036;-74
2023/10/20 06:13:05;;;;;;;23.87;21.73;;;;;;;;;;5277323;28;20032;-73
2023/10/20 06:15:36;;;;;;;25.15;22.50;;;;;;;;;;5278611;28;20259;-73
2023/10/20 06:18:07;;;;;;;24.03;21.93;;;;;;;;;;5279748;28;20028;-73
2023/10/20 06:20:39;;;;;;;24.83;22.25;;;;;;;;;;5280363;28;20761;-73
2023/10/20 06:23:10;;;;;;;23.25;20.98;;;;;;;;;;5280066;28;20018;-74
2023/10/20 06:25:42;;;;;;;21.98;19.83;;;;;;;;;;5280594;28;20482;-71
2023/10/20 06:28:13;;;;;;;22.98;20.70;;;;;;;;;;5280179;28;20753;-73
2023/10/20 06:30:45;;;;;;;20.52;18.52;;;;;;;;;;5278759;28;20050;-73
2023/10/20 06:33:16;;;;;;;20.95;19.08;;;;;;;;;;5280988;28;20043;-73
2023/10/20 06:35:51;;;;;;;21.02;19.05;;;;;;;;;;5280512;28;20012;-73
2023/10/20 06:38:36;;;;;;;21.75;19.58;;;;;;;;;;5280627;28;20444;-73
2023/10/20 06:41:08;;;;;;;23.73;21.25;;;;;;;;;;5280751;28;20087;-74
2023/10/20 06:43:39;;;;;;;22.55;20.35;;;;;;;;;;5279217;28;20098;-73
2023/10/20 06:46:11;;;;;;;22.52;20.15;;;;;;;;;;5280717;28;20024;-73
2023/10/20 06:48:42;;;;;;;23.42;21.15;;;;;;;;;;5281706;28;20429;-76
2023/10/20 06:51:13;;;;;;;23.77;21.13;;;;;;;;;;5280541;28;20255;-73
2023/10/20 06:53:44;;;;;;;21.95;19.75;;;;;;;;;;5279993;28;20279;-71
2023/10/20 06:56:15;;;;;;;22.48;20.35;;;;;;;;;;5280390;28;20443;-71
2023/10/20 06:58:47;;;;;;;24.70;22.23;;;;;;;;;;5280278;28;20617;-72
2023/10/20 07:01:18;;;;;;;26.70;24.02;;;;;;;;;;5281695;28;20714;-73
2023/10/20 07:03:49;;;;;;;25.67;22.88;;;;;;;;;;5281433;28;20013;-71
2023/10/20 07:06:21;;;;;;;23.15;21.02;;;;;;;;;;5281015;28;20103;-72
2023/10/20 07:08:52;;;;;;;24.10;21.88;;;;;;;;;;5281330;28;20266;-72
2023/10/20 07:11:24;;;;;;;23.77;21.67;;;;;;;;;;5281390;28;20086;-73
2023/10/20 07:13:55;;;;;;;23.65;21.25;;;;;;;;;;5279979;28;20430;-73
2023/10/20 07:16:27;;;;;;;22.13;20.17;;;;;;;;;;5281042;28;20017;-72
2023/10/20 07:18:58;;;;;;;21.88;19.98;;;;;;;;;;5280151;28;20112;-72
2023/10/20 07:21:30;;;;;;;21.33;19.45;;;;;;;;;;5281380;28;20468;-72
2023/10/20 07:24:03;;;;;;;20.13;18.33;;;;;;;;;;5281160;28;20039;-71
2023/10/20 07:26:34;;;;;;;18.65;17.02;;;;;;;;;;5280709;28;20028;-71
2023/10/20 07:29:05;;;;;;;20.52;18.65;;;;;;;;;;5281096;28;20070;-72
2023/10/20 07:31:39;;;;;;;19.07;17.43;;;;;;;;;;5280886;28;20108;-71
2023/10/20 07:34:10;;;;;;;20.40;18.45;;;;;;;;;;5280424;28;20317;-71
2023/10/20 07:36:42;;;;;;;19.17;17.47;;;;;;;;;;5281171;28;20020;-70
2023/10/20 07:39:16;;;;;;;20.90;18.90;;;;;;;;;;5280731;28;20275;-70
2023/10/20 07:41:47;;;;;;;19.02;17.30;;;;;;;;;;5279778;28;20100;-72
2023/10/20 07:44:18;;;;;;;19.13;17.50;;;;;;;;;;5281348;28;20127;-72
2023/10/20 07:46:50;;;;;;;17.95;16.45;;;;;;;;;;5284377;28;20487;-72
2023/10/20 07:49:21;;;;;;;16.98;15.48;;;;;;;;;;5284442;28;20028;-71
2023/10/20 07:51:52;;;;;;;17.57;15.73;;;;;;;;;;5284220;28;20036;-71
2023/10/20 07:54:23;;;;;;;18.98;17.17;;;;;;;;;;5282989;28;20263;-72
2023/10/20 07:56:55;;;;;;;16.33;14.93;;;;;;;;;;5284679;28;20060;-70
2023/10/20 07:59:26;;;;;;;15.25;13.75;;;;;;;;;;5284741;28;20765;-72
2023/10/20 08:01:57;;;;;;;13.83;12.63;;;;;;;;;;5283796;28;20111;-72
2023/10/20 08:04:29;;;;;;;14.25;13.05;;;;;;;;;;5284505;28;20765;-73
2023/10/20 08:07:00;;;;;;;14.05;12.80;;;;;;;;;;5284570;28;20025;-70
2023/10/20 08:09:31;;;;;;;15.35;13.90;;;;;;;;;;5283619;28;20023;-71
2023/10/20 08:12:03;;;;;;;12.90;11.80;;;;;;;;;;5284377;28;20511;-71
2023/10/20 08:14:34;;;;;;;12.38;11.18;;;;;;;;;;5284459;28;20636;-73
2023/10/20 08:17:07;;;;;;;11.60;10.60;;;;;;;;;;5283213;28;20497;-73
2023/10/20 08:19:43;;;;;;;10.38;9.48;;;;;;;;;;5284400;28;20074;-72
2023/10/20 08:22:15;;;;;;;10.90;9.88;;;;;;;;;;5282327;28;20074;-72
2023/10/20 08:24:46;;;;;;;9.73;8.93;;;;;;;;;;5283416;28;20017;-72
2023/10/20 08:27:20;;;;;;;10.27;9.27;;;;;;;;;;5284374;28;20476;-71
2023/10/20 08:29:55;;;;;;;8.85;7.80;;;;;;;;;;5283168;28;20044;-71
2023/10/20 08:32:26;;;;;;;8.73;8.02;;;;;;;;;;5284019;28;20039;-71
2023/10/20 08:34:58;;;;;;;7.45;6.82;;;;;;;;;;5280810;28;20024;-72
2023/10/20 08:37:29;;;;;;;8.15;7.45;;;;;;;;;;5282768;28;20471;-73
2023/10/20 08:40:01;;;;;;;7.03;6.43;;;;;;;;;;5283419;28;20021;-72
2023/10/20 08:42:32;;;;;;;6.77;6.17;;;;;;;;;;5283566;28;20852;-73
2023/10/20 08:45:03;;;;;;;6.47;5.95;;;;;;;;;;5282816;28;20692;-71
2023/10/20 08:47:35;;;;;;;5.07;4.68;;;;;;;;;;5281587;28;20044;-72
2023/10/20 08:50:07;;;;;;;8.32;5.80;;;;;;;;;;5282897;28;20031;-72
2023/10/20 08:52:39;;;;;;;6.07;5.57;;;;;;;;;;5281823;28;20521;-72
2023/10/20 08:55:10;;;;;;;5.60;5.10;;;;;;;;;;5283749;28;20017;-73
2023/10/20 08:57:42;;;;;;;5.88;5.38;;;;;;;;;;5282804;28;20074;-72
2023/10/20 09:00:20;;;;;;;6.70;4.70;;;;;;;;;;5283566;28;20008;-71
2023/10/20 09:02:57;;;;;;;5.82;4.50;;;;;;;;;;5283143;28;20266;-72
2023/10/20 09:05:28;;;;;;;4.63;4.22;;;;;;;;;;5282832;28;20482;-71
2023/10/20 09:08:00;;;;;;;3.88;3.55;;;;;;;;;;5283449;28;20012;-71
2023/10/20 09:10:31;;;;;;;5.63;5.13;;;;;;;;;;5283406;28;20103;-70
2023/10/20 09:13:02;;;;;;;5.27;4.70;;;;;;;;;;5282378;28;20039;-70
2023/10/20 09:15:34;;;;;;;6.13;3.80;;;;;;;;;;5283185;28;20271;-70
2023/10/20 09:18:08;;;;;;;5.78;4.05;;;;;;;;;;5283315;28;20016;-70
2023/10/20 09:20:41;;;;;;;2.75;2.47;;;;;;;;;;5282418;28;20021;-70
2023/10/20 09:23:12;;;;;;;3.35;2.60;;;;;;;;;;5283079;28;20020;-69
2023/10/20 09:25:43;;;;;;;2.33;1.80;;;;;;;;;;5282160;28;20020;-70
2023/10/20 09:28:17;;;;;;;2.90;1.90;;;;;;;;;;5283128;28;20320;-69
2023/10/20 09:30:48;;;;;;;2.53;2.05;;;;;;;;;;5282723;28;20517;-67
2023/10/20 09:33:21;;;;;;;2.53;1.92;;;;;;;;;;5282360;28;20111;-71
2023/10/20 09:35:55;;;;;;;2.13;1.40;;;;;;;;;;5282081;28;20031;-68
2023/10/20 09:38:27;;;;;;;2.22;1.33;;;;;;;;;;5282417;28;20023;-68
2023/10/20 09:41:05;;;;;;;1.88;1.23;;;;;;;;;;5281810;28;20434;-71
2023/10/20 09:43:45;;;;;;;2.33;1.35;;;;;;;;;;5282667;28;20028;-71
2023/10/20 09:46:16;;;;;;;3.38;1.20;;;;;;;;;;5282818;28;20036;-71
2023/10/20 09:48:50;;;;;;;2.25;1.00;;;;;;;;;;5281602;28;20082;-71
2023/10/20 09:51:21;;;;;;;1.70;1.05;;;;;;;;;;5282650;28;20040;-71
2023/10/20 09:53:53;;;;;;;3.38;1.00;;;;;;;;;;5281384;28;20056;-71
2023/10/20 09:56:25;;;;;;;3.30;0.80;;;;;;;;;;5282185;28;20571;-70
2023/10/20 09:58:58;;;;;;;1.90;1.00;;;;;;;;;;5282013;28;20103;-70
2023/10/20 10:01:30;;;;;;;1.33;0.90;;;;;;;;;;5281602;28;20422;-70
2023/10/20 10:04:03;;;;;;;1.38;0.80;;;;;;;;;;5282417;28;20017;-71
2023/10/20 10:06:35;;;;;;;2.60;1.05;;;;;;;;;;5282238;28;20021;-70
2023/10/20 10:09:07;;;;;;;5.65;3.47;;;;;;;;;;5280732;28;20533;-69
2023/10/20 10:11:39;;;;;;;10.15;6.63;;;;;;;;;;5281934;28;20016;-68
2023/10/20 10:14:18;;;;;;;3.00;1.80;;;;;;;;;;5282175;28;20356;-70
2023/10/20 10:16:56;;;;;;;3.30;2.97;;;;;;;;;;5281120;28;20459;-70
2023/10/20 10:19:27;;;;;;;4.53;2.80;;;;;;;;;;5282370;28;20040;-70
2023/10/20 10:22:00;;;;;;;11.35;10.35;;;;;;;;;;5281000;28;20020;-70
2023/10/20 10:24:36;;;;;;;3.30;3.00;;;;;;;;;;5281523;28;20104;-70
2023/10/20 10:27:07;;;;;;;1.58;1.00;;;;;;;;;;5281848;28;20054;-70
2023/10/20 10:29:45;;;;;;;1.77;0.80;;;;;;;;;;5281260;28;20463;-69
2023/10/20 10:32:20;;;;;;;1.10;0.65;;;;;;;;;;5282042;28;20494;-71
2023/10/20 10:34:52;;;;;;;1.45;0.80;;;;;;;;;;5281636;28;20357;-70
2023/10/20 10:37:27;;;;;;;1.10;0.70;;;;;;;;;;5280898;28;20036;-69
2023/10/20 10:40:09;;;;;;;1.33;0.80;;;;;;;;;;5281760;28;20021;-69
2023/10/20 10:42:43;;;;;;;0.82;0.60;;;;;;;;;;5281650;28;20533;-70
2023/10/20 10:45:22;;;;;;;0.95;0.60;;;;;;;;;;5281683;28;20417;-70
2023/10/20 10:47:53;;;;;;;;;;;;;;;;;;5281568;28;20139;-70
2023/10/20 10:50:25;;;;;;;2.17;0.70;;;;;;;;;;5280997;28;19995;-70
2023/10/20 10:52:56;;;;;;;0.95;0.60;;;;;;;;;;5281611;28;20405;-70
2023/10/20 10:55:27;;;;;;;1.40;0.80;;;;;;;;;;5281574;28;20025;-71
2023/10/20 10:57:59;;;;;;;1.83;0.60;;;;;;;;;;5281017;28;20266;-68
2023/10/20 11:00:31;;;;;;;1.08;0.60;;;;;;;;;;5281750;28;20017;-70
2023/10/20 11:03:02;;;;;;;1.38;0.77;;;;;;;;;;5281246;28;20123;-70
2023/10/20 11:05:34;;;;;;;1.20;0.95;;;;;;;;;;5273347;28;20409;-70
2023/10/20 11:08:06;;;;;;;2.08;1.88;;;;;;;;;;5281126;28;20025;-70
2023/10/20 11:10:42;;;;;;;0.88;0.60;;;;;;;;;;5281482;28;20048;-70
2023/10/20 11:13:15;;;;;;;0.90;0.55;;;;;;;;;;5280420;28;20036;-69
2023/10/20 11:15:46;;;;;;;1.55;1.10;;;;;;;;;;5279652;28;20112;-70
2023/10/20 11:18:20;;;;;;;1.08;0.85;;;;;;;;;;5280268;28;20096;-70
2023/10/20 11:20:52;;;;;;;2.97;1.00;;;;;;;;;;5283000;28;20099;-70
2023/10/20 11:23:27;;;;;;;2.30;1.50;;;;;;;;;;5285477;28;20493;-70
2023/10/20 11:25:58;;;;;;;1.80;1.70;;;;;;;;;;5284641;28;20024;-70
2023/10/20 11:28:30;;;;;;;2.30;2.10;;;;;;;;;;5285169;28;20012;-70
2023/10/20 11:31:01;;;;;;;2.13;1.92;;;;;;;;;;5285558;28;20340;-70
2023/10/20 11:33:32;;;;;;;2.53;2.13;;;;;;;;;;5284490;28;20040;-71
2023/10/20 11:36:04;;;;;;;2.33;2.15;;;;;;;;;;5285195;28;20040;-72
2023/10/20 11:38:35;;;;;;;3.58;3.35;;;;;;;;;;5285074;28;20070;-71
2023/10/20 11:41:07;;;;;;;3.25;3.05;;;;;;;;;;5284176;28;20024;-71
2023/10/20 11:43:40;;;;;;;4.70;2.60;;;;;;;;;;5285155;28;20024;-71
2023/10/20 11:46:11;;;;;;;2.50;2.30;;;;;;;;;;5283897;28;20136;-70
2023/10/20 11:48:42;;;;;;;2.67;2.33;;;;;;;;;;5285038;28;20124;-71
2023/10/20 11:51:13;;;;;;;3.78;2.90;;;;;;;;;;5284753;28;20025;-71
2023/10/20 11:53:45;;;;;;;3.50;3.30;;;;;;;;;;5283795;28;20021;-71
2023/10/20 11:56:16;;;;;;;4.18;3.97;;;;;;;;;;5284855;28;20055;-71
2023/10/20 11:58:47;;;;;;;3.60;3.30;;;;;;;;;;5284562;28;20022;-71
2023/10/20 12:01:18;;;;;;;3.65;3.45;;;;;;;;;;5284088;28;20024;-71
2023/10/20 12:03:49;;;;;;;3.28;3.08;;;;;;;;;;5284304;28;20568;-70
2023/10/20 12:06:21;;;;;;;4.10;3.90;;;;;;;;;;5285115;28;20021;-71
2023/10/20 12:08:52;;;;;;;4.28;4.03;;;;;;;;;;5283645;28;20028;-70
2023/10/20 12:11:23;;;;;;;5.35;4.95;;;;;;;;;;5284340;28;20055;-71
2023/10/20 12:13:55;;;;;;;5.43;5.13;;;;;;;;;;5284457;28;20385;-70
2023/10/20 12:16:26;;;;;;;5.22;4.93;;;;;;;;;;5283661;28;20017;-71
2023/10/20 12:19:05;;;;;;;6.50;6.20;;;;;;;;;;5284612;28;20023;-70
2023/10/20 12:21:38;;;;;;;5.68;5.38;;;;;;;;;;5283752;28;20075;-71
2023/10/20 12:24:09;;;;;;;7.10;6.70;;;;;;;;;;5284155;28;20036;-71
2023/10/20 12:26:41;;;;;;;8.48;7.97;;;;;;;;;;5284121;28;20062;-72
2023/10/20 12:29:12;;;;;;;7.07;6.68;;;;;;;;;;5283345;28;20471;-70
2023/10/20 12:31:44;;;;;;;6.38;6.03;;;;;;;;;;5283809;28;20028;-71
2023/10/20 12:34:15;;;;;;;5.70;5.40;;;;;;;;;;5284065;28;20066;-72
2023/10/20 12:36:48;;;;;;;5.35;5.03;;;;;;;;;;5282928;28;20333;-72
2023/10/20 12:39:20;;;;;;;4.40;4.20;;;;;;;;;;5284053;28;20020;-72
2023/10/20 12:41:51;;;;;;;4.70;4.40;;;;;;;;;;5283622;28;20111;-71
2023/10/20 12:44:22;;;;;;;4.43;4.13;;;;;;;;;;5283569;28;20107;-72
2023/10/20 12:46:54;;;;;;;4.68;4.38;;;;;;;;;;5283368;28;20128;-73
2023/10/20 12:49:25;;;;;;;3.90;3.70;;;;;;;;;;5283030;28;20039;-70
2023/10/20 12:51:56;;;;;;;3.72;3.53;;;;;;;;;;5279616;28;20291;-71
2023/10/20 12:54:27;;;;;;;6.75;6.25;;;;;;;;;;5283628;28;20070;-71
2023/10/20 12:57:00;;;;;;;3.92;3.70;;;;;;;;;;5282896;28;20047;-71
2023/10/20 12:59:32;;;;;;;3.85;3.03;;;;;;;;;;5283696;28;20371;-72
2023/10/20 13:02:04;;;;;;;2.80;2.60;;;;;;;;;;5283459;28;20020;-71
2023/10/20 13:04:35;;;;;;;3.58;1.98;;;;;;;;;;5282355;28;20029;-71
2023/10/20 13:07:06;;;;;;;1.75;1.00;;;;;;;;;;5283119;28;20439;-69
2023/10/20 13:09:37;;;;;;;1.55;0.90;;;;;;;;;;5283555;28;20026;-70
2023/10/20 13:12:08;;;;;;;1.13;0.60;;;;;;;;;;5282635;28;20389;-74
2023/10/20 13:14:39;;;;;;;1.53;0.60;;;;;;;;;;5283014;28;20271;-73
2023/10/20 13:17:11;;;;;;;0.83;0.43;;;;;;;;;;5283232;28;20314;-73
2023/10/20 13:19:42;;;;;;;0.53;0.30;;;;;;;;;;5282536;28;20266;-73
2023/10/20 13:22:13;;;;;;;1.02;0.30;;;;;;;;;;5281919;28;20294;-74
2023/10/20 13:24:44;;;;;;;0.52;0.40;;;;;;;;;;5280802;28;20020;-73
2023/10/20 13:27:16;;;;;;;0.77;0.30;;;;;;;;;;5281517;28;20024;-73
2023/10/20 13:29:47;;;;;;;0.65;0.30;;;;;;;;;;5282806;28;20013;-73
2023/10/20 13:32:18;;;;;;;1.67;0.40;;;;;;;;;;5282401;28;20032;-73
2023/10/20 13:34:49;;;;;;;1.33;0.30;;;;;;;;;;5282796;28;20524;-71
2023/10/20 13:37:21;;;;;;;0.97;0.30;;;;;;;;;;5283236;28;20016;-73
2023/10/20 13:39:53;;;;;;;0.63;0.40;;;;;;;;;;5281760;28;20258;-72
2023/10/20 13:42:25;;;;;;;0.47;0.30;;;;;;;;;;5282177;28;20031;-72
2023/10/20 13:44:56;;;;;;;1.25;0.40;;;;;;;;;;5282698;28;20016;-72
2023/10/20 13:47:28;;;;;;;0.95;0.30;;;;;;;;;;5281801;28;20450;-72
2023/10/20 13:50:02;;;;;;;0.70;0.30;;;;;;;;;;5282677;28;20040;-74
2023/10/20 13:52:33;;;;;;;0.90;0.40;;;;;;;;;;5282437;28;20360;-74
2023/10/20 13:55:06;;;;;;;0.65;0.30;;;;;;;;;;5282034;28;20016;-73
2023/10/20 13:57:38;;;;;;;1.35;0.60;;;;;;;;;;5279505;28;20115;-74
2023/10/20 14:00:12;;;;;;;1.02;0.40;;;;;;;;;;5281380;28;20099;-74
2023/10/20 14:02:43;;;;;;;1.85;0.50;;;;;;;;;;5282264;28;20021;-73
2023/10/20 14:05:18;;;;;;;1.88;0.50;;;;;;;;;;5265553;28;20025;-75
2023/10/20 14:07:49;;;;;;;0.98;0.57;;;;;;;;;;5256109;28;20029;-75
2023/10/20 14:10:21;;;;;;;0.93;0.60;;;;;;;;;;5280798;28;20042;-74
2023/10/20 14:12:53;;;;;;;0.80;0.60;;;;;;;;;;5281079;28;20289;-74
2023/10/20 14:15:24;;;;;;;1.02;0.60;;;;;;;;;;5281210;28;20020;-74
2023/10/20 14:17:56;;;;;;;0.63;0.40;;;;;;;;;;5282146;28;20035;-74
2023/10/20 14:20:31;;;;;;;1.00;0.50;;;;;;;;;;5282218;28;20066;-75
2023/10/20 14:23:04;;;;;;;0.95;0.50;;;;;;;;;;5281167;28;20108;-73
2023/10/20 14:25:36;;;;;;;1.10;0.60;;;;;;;;;;5280442;28;20028;-74
2023/10/20 14:28:07;;;;;;;1.10;0.70;;;;;;;;;;5279638;28;20020;-75
2023/10/20 14:30:38;;;;;;;0.80;0.50;;;;;;;;;;5281770;28;20466;-74
2023/10/20 14:33:09;;;;;;;0.93;0.50;;;;;;;;;;5281683;28;20870;-74
2023/10/20 14:35:41;;;;;;;1.40;0.60;;;;;;;;;;5281025;28;20016;-74
2023/10/20 14:38:12;;;;;;;0.70;0.52;;;;;;;;;;5281697;28;20818;-75
2023/10/20 14:40:44;;;;;;;2.10;0.40;;;;;;;;;;5281976;28;20020;-75
2023/10/20 14:43:16;;;;;;;0.57;0.38;;;;;;;;;;5281425;28;20290;-74
2023/10/20 14:45:54;;;;;;;0.80;0.50;;;;;;;;;;5281413;28;20020;-73
2023/10/20 14:48:26;;;;;;;0.80;0.50;;;;;;;;;;5281490;28;20374;-74
2023/10/20 14:50:58;;;;;;;0.98;0.55;;;;;;;;;;5281024;28;20047;-75
2023/10/20 14:53:29;;;;;;;1.17;0.60;;;;;;;;;;5282341;28;20032;-74
2023/10/20 14:56:02;;;;;;;1.20;0.60;;;;;;;;;;5287981;28;20371;-74
2023/10/20 14:58:33;;;;;;;1.02;0.50;;;;;;;;;;5288560;28;20775;-73
2023/10/20 15:01:06;;;;;;;1.17;0.60;;;;;;;;;;5287646;28;20021;-73
2023/10/20 15:03:37;;;;;;;0.93;0.60;;;;;;;;;;5287929;28;20490;-73
2023/10/20 15:06:08;;;;;;;1.10;0.73;;;;;;;;;;5285583;28;20025;-72
2023/10/20 15:08:39;;;;;;;1.55;0.70;;;;;;;;;;5288268;28;20027;-71
2023/10/20 15:11:11;;;;;;;1.30;0.90;;;;;;;;;;5287522;28;20020;-72
2023/10/20 15:13:43;;;;;;;1.63;1.10;;;;;;;;;;5288033;28;20425;-72
2023/10/20 15:16:16;;;;;;;1.40;0.90;;;;;;;;;;5287702;28;20543;-72
2023/10/20 15:18:47;;;;;;;1.42;1.20;;;;;;;;;;5286206;28;20024;-72
2023/10/20 15:21:19;;;;;;;1.30;1.02;;;;;;;;;;5286767;28;20387;-72
2023/10/20 15:23:50;;;;;;;1.77;1.38;;;;;;;;;;5286253;28;20020;-72
2023/10/20 15:26:21;;;;;;;1.60;1.13;;;;;;;;;;5287966;28;20459;-73
2023/10/20 15:28:53;;;;;;;1.52;1.30;;;;;;;;;;5287504;28;20020;-73